createdAt,value
2023-02-27T00:01:04.390Z,89.16
2023-02-27T00:03:31.998Z,89.19
2023-02-27T00:06:00.933Z,88.65
2023-02-27T00:08:28.493Z,89.60
2023-02-27T00:10:56.137Z,89.02
2023-02-27T00:13:23.635Z,88.74
2023-02-27T00:15:51.711Z,89.07
2023-02-27T00:18:19.309Z,89.27
2023-02-27T00:20:46.829Z,88.70
2023-02-27T00:23:16.304Z,88.68
2023-02-27T00:25:43.921Z,88.03
2023-02-27T00:28:11.637Z,88.64
2023-02-27T00:30:40.073Z,89.43
2023-02-27T00:33:08.969Z,89.19
2023-02-27T00:35:36.808Z,89.51
2023-02-27T00:38:04.866Z,89.13
2023-02-27T00:40:35.744Z,88.50
2023-02-27T00:43:03.400Z,89.26
2023-02-27T00:45:31.131Z,89.12
2023-02-27T00:47:58.857Z,89.48
2023-02-27T00:50:26.412Z,90.23
2023-02-27T00:52:53.922Z,89.67
2023-02-27T00:55:22.212Z,89.34
2023-02-27T00:57:51.159Z,89.04
2023-02-27T01:00:19.457Z,89.18
2023-02-27T01:02:47.078Z,89.36
2023-02-27T01:05:15.135Z,89.39
2023-02-27T01:07:42.782Z,89.24
2023-02-27T01:10:12.598Z,88.82
2023-02-27T01:12:40.530Z,88.61
2023-02-27T01:15:11.191Z,87.96
2023-02-27T01:17:39.070Z,88.14
2023-02-27T01:20:09.241Z,88.36
2023-02-27T01:22:36.891Z,88.85
2023-02-27T01:25:04.985Z,89.39
2023-02-27T01:27:32.956Z,89.96
2023-02-27T01:30:00.654Z,91.18
2023-02-27T01:32:29.691Z,90.59
2023-02-27T01:34:57.276Z,90.01
2023-02-27T01:37:26.958Z,89.94
2023-02-27T01:39:54.517Z,91.00
2023-02-27T01:42:24.614Z,92.15
2023-02-27T01:45:25.169Z,92.67
2023-02-27T01:47:56.624Z,93.17
2023-02-27T01:50:24.818Z,93.68
2023-02-27T01:52:57.374Z,93.52
2023-02-27T01:55:27.025Z,93.45
2023-02-27T01:57:55.628Z,93.88
2023-02-27T02:00:23.939Z,92.89
2023-02-27T02:03:01.770Z,92.02
2023-02-27T02:05:31.202Z,91.47
2023-02-27T02:08:00.373Z,91.43
2023-02-27T02:10:29.086Z,93.06
2023-02-27T02:12:57.199Z,92.78
2023-02-27T02:15:33.477Z,91.69
2023-02-27T02:18:11.194Z,90.78
2023-02-27T02:21:12.252Z,89.65
2023-02-27T02:24:21.014Z,90.20
2023-02-27T02:26:59.034Z,90.84
2023-02-27T02:30:22.582Z,91.35
2023-02-27T02:33:20.301Z,92.12
2023-02-27T02:36:28.187Z,91.73
2023-02-27T02:39:10.733Z,92.60
2023-02-27T02:41:54.215Z,91.31
2023-02-27T02:44:30.811Z,91.76
2023-02-27T02:47:06.485Z,91.89
2023-02-27T02:49:44.467Z,92.24
2023-02-27T02:52:20.511Z,92.36
2023-02-27T02:54:57.166Z,92.47
2023-02-27T02:57:31.210Z,92.30
2023-02-27T03:00:05.965Z,93.26
2023-02-27T03:02:40.136Z,93.27
2023-02-27T03:05:10.975Z,93.56
2023-02-27T03:07:44.049Z,93.57
2023-02-27T03:10:17.644Z,94.15
2023-02-27T03:12:50.398Z,94.85
2023-02-27T03:15:20.897Z,94.97
2023-02-27T03:17:52.568Z,94.63
2023-02-27T03:20:24.909Z,94.75
2023-02-27T03:22:57.830Z,93.49
2023-02-27T03:25:29.599Z,93.68
2023-02-27T03:28:02.242Z,94.26
2023-02-27T03:30:34.094Z,93.67
2023-02-27T03:33:08.297Z,94.62
2023-02-27T03:35:43.090Z,94.37
2023-02-27T03:38:20.131Z,94.94
2023-02-27T03:41:01.794Z,95.21
2023-02-27T03:43:46.545Z,94.19
2023-02-27T03:46:17.680Z,94.38
2023-02-27T03:48:46.451Z,94.31
2023-02-27T03:51:16.867Z,94.60
2023-02-27T03:53:50.626Z,95.04
2023-02-27T03:56:25.794Z,94.37
2023-02-27T03:58:54.349Z,94.34
2023-02-27T04:01:22.163Z,94.71
2023-02-27T04:03:56.552Z,93.30
2023-02-27T04:07:07.525Z,93.92
2023-02-27T04:09:48.982Z,94.91
2023-02-27T04:12:35.899Z,94.31
2023-02-27T04:15:13.820Z,94.34
2023-02-27T04:17:53.411Z,94.65
2023-02-27T04:20:42.746Z,93.92
2023-02-27T04:23:17.838Z,94.32
2023-02-27T04:26:01.932Z,94.00
2023-02-27T04:28:41.571Z,94.14
2023-02-27T04:31:14.893Z,94.61
2023-02-27T04:33:49.705Z,94.56
2023-02-27T04:36:24.545Z,95.69
2023-02-27T04:38:59.840Z,95.10
2023-02-27T04:41:31.420Z,96.13
2023-02-27T04:44:02.980Z,95.43
2023-02-27T04:46:33.016Z,95.61
2023-02-27T04:49:05.351Z,96.17
2023-02-27T04:51:37.478Z,96.45
2023-02-27T04:54:10.837Z,96.13
2023-02-27T04:56:42.981Z,94.97
2023-02-27T04:59:17.367Z,94.56
2023-02-27T05:01:51.302Z,94.76
2023-02-27T05:04:22.625Z,94.60
2023-02-27T05:06:52.367Z,94.73
2023-02-27T05:09:25.650Z,95.48
2023-02-27T05:11:58.132Z,95.45
2023-02-27T05:14:31.389Z,94.93
2023-02-27T05:17:04.349Z,95.20
2023-02-27T05:19:33.620Z,95.92
2023-02-27T05:22:12.097Z,96.13
2023-02-27T05:24:47.770Z,95.91
2023-02-27T05:27:25.651Z,95.71
2023-02-27T05:29:57.639Z,95.06
2023-02-27T05:32:34.458Z,96.02
2023-02-27T05:35:09.961Z,95.57
2023-02-27T05:37:42.410Z,95.84
2023-02-27T05:40:13.462Z,95.46
2023-02-27T05:42:44.496Z,95.88
2023-02-27T05:45:18.679Z,95.76
2023-02-27T05:47:52.438Z,95.78
2023-02-27T05:50:24.178Z,95.93
2023-02-27T05:52:53.687Z,95.77
2023-02-27T05:55:25.300Z,96.51
2023-02-27T05:57:58.303Z,96.32
2023-02-27T06:00:34.370Z,96.85
2023-02-27T06:03:02.065Z,97.87
2023-02-27T06:05:30.443Z,98.34
2023-02-27T06:07:58.060Z,97.50
2023-02-27T06:10:26.021Z,98.05
2023-02-27T06:12:53.519Z,97.71
2023-02-27T06:15:21.104Z,97.55
2023-02-27T06:17:50.011Z,97.13
2023-02-27T06:20:17.902Z,96.78
2023-02-27T06:22:45.450Z,97.02
2023-02-27T06:25:13.449Z,96.42
2023-02-27T06:27:40.966Z,95.56
2023-02-27T06:30:09.727Z,95.45
2023-02-27T06:32:37.295Z,95.17
2023-02-27T06:35:07.381Z,95.66
2023-02-27T06:37:34.941Z,95.49
2023-02-27T06:40:02.583Z,95.42
2023-02-27T06:42:30.074Z,95.13
2023-02-27T06:44:57.622Z,95.29
2023-02-27T06:47:25.514Z,97.55
2023-02-27T06:49:53.071Z,97.37
2023-02-27T06:52:21.970Z,97.54
2023-02-27T06:54:49.516Z,98.29
2023-02-27T06:57:17.215Z,99.06
2023-02-27T06:59:45.343Z,98.88
2023-02-27T07:02:14.513Z,98.81
2023-02-27T07:04:43.057Z,98.96
2023-02-27T07:07:35.891Z,98.72
2023-02-27T07:10:00.011Z,98.40
2023-02-27T07:12:27.635Z,99.05
2023-02-27T07:14:55.116Z,99.52
2023-02-27T07:17:22.827Z,99.39
2023-02-27T07:19:50.384Z,99.82
2023-02-27T07:22:17.977Z,99.50
2023-02-27T07:24:45.534Z,99.57
2023-02-27T07:27:14.380Z,99.56
2023-02-27T07:29:42.216Z,99.96
2023-02-27T07:32:10.029Z,99.92
2023-02-27T07:34:37.616Z,99.85
2023-02-27T07:37:05.186Z,99.50
2023-02-27T07:39:32.959Z,99.70
2023-02-27T07:42:00.524Z,100.00
2023-02-27T07:44:29.475Z,100.00
2023-02-27T07:46:57.040Z,100.00
2023-02-27T07:49:24.606Z,100.00
2023-02-27T07:51:52.296Z,100.00
2023-02-27T07:54:20.000Z,99.92
2023-02-27T07:56:47.648Z,100.00
2023-02-27T07:59:15.160Z,100.00
2023-02-27T08:01:43.990Z,99.99
2023-02-27T08:04:11.558Z,99.08
2023-02-27T08:06:39.735Z,99.15
2023-02-27T08:09:07.789Z,98.93
2023-02-27T08:11:35.312Z,99.33
2023-02-27T08:14:03.388Z,98.86
2023-02-27T08:16:32.119Z,98.82
2023-02-27T08:19:01.957Z,98.66
2023-02-27T08:21:30.525Z,98.40
2023-02-27T08:23:58.340Z,98.05
2023-02-27T08:26:26.554Z,98.20
2023-02-27T08:28:54.372Z,97.78
2023-02-27T08:31:21.948Z,97.12
2023-02-27T08:33:55.289Z,97.30
2023-02-27T08:36:27.174Z,96.91
2023-02-27T08:38:54.850Z,96.64
2023-02-27T08:41:23.091Z,96.07
2023-02-27T08:43:50.777Z,95.48
2023-02-27T08:46:18.371Z,94.93
2023-02-27T08:48:45.903Z,94.36
2023-02-27T08:51:13.526Z,95.76
2023-02-27T08:53:42.510Z,95.13
2023-02-27T08:56:10.470Z,94.17
2023-02-27T08:58:38.039Z,92.94
2023-02-27T09:01:05.804Z,92.45
2023-02-27T09:03:33.357Z,91.95
2023-02-27T09:06:01.043Z,90.01
2023-02-27T09:08:28.589Z,90.28
2023-02-27T09:10:59.048Z,90.26
2023-02-27T09:13:27.174Z,89.17
2023-02-27T09:15:54.994Z,88.06
2023-02-27T09:18:22.977Z,88.64
2023-02-27T09:20:51.972Z,88.47
2023-02-27T09:23:20.539Z,87.03
2023-02-27T09:25:48.477Z,85.22
2023-02-27T09:28:17.479Z,83.09
2023-02-27T09:30:45.018Z,83.11
2023-02-27T09:33:12.560Z,82.09
2023-02-27T09:35:40.217Z,82.03
2023-02-27T09:38:07.804Z,80.67
2023-02-27T09:40:41.520Z,80.24
2023-02-27T09:43:15.516Z,80.21
2023-02-27T09:45:47.953Z,80.34
2023-02-27T09:48:25.379Z,79.71
2023-02-27T09:50:53.409Z,79.46
2023-02-27T09:53:27.320Z,79.86
2023-02-27T09:55:58.396Z,81.23
2023-02-27T09:58:44.468Z,79.58
2023-02-27T10:01:20.102Z,78.95
2023-02-27T10:04:13.852Z,78.73
2023-02-27T10:06:45.308Z,76.60
2023-02-27T10:09:25.840Z,74.93
2023-02-27T10:12:07.327Z,76.22
2023-02-27T10:14:43.106Z,72.97
2023-02-27T10:17:20.214Z,72.72
2023-02-27T10:19:49.377Z,72.72
2023-02-27T10:22:24.470Z,72.36
2023-02-27T10:24:55.735Z,72.91
2023-02-27T10:27:24.257Z,72.68
2023-02-27T10:29:54.196Z,73.10
2023-02-27T10:32:26.704Z,72.39
2023-02-27T10:35:01.171Z,72.77
2023-02-27T10:37:30.279Z,73.71
2023-02-27T10:40:00.388Z,72.63
2023-02-27T10:42:33.016Z,73.46
2023-02-27T10:45:00.623Z,72.62
2023-02-27T10:47:29.714Z,73.45
2023-02-27T10:50:00.253Z,72.44
2023-02-27T10:52:28.233Z,74.68
2023-02-27T10:54:55.871Z,74.32
2023-02-27T10:57:29.028Z,74.64
2023-02-27T10:59:59.501Z,74.06
2023-02-27T11:02:33.158Z,74.60
2023-02-27T11:05:01.362Z,74.45
2023-02-27T11:07:32.814Z,75.10
2023-02-27T11:10:03.516Z,73.27
2023-02-27T11:12:32.840Z,71.54
2023-02-27T11:15:02.505Z,71.12
2023-02-27T11:17:34.001Z,72.42
2023-02-27T11:20:05.981Z,71.71
2023-02-27T11:22:34.394Z,66.88
2023-02-27T11:25:19.717Z,68.30
2023-02-27T11:27:48.109Z,66.96
2023-02-27T11:30:27.977Z,65.54
2023-02-27T11:33:00.005Z,66.50
2023-02-27T11:35:31.041Z,69.57
2023-02-27T11:38:01.974Z,69.45
2023-02-27T11:40:32.944Z,68.42
2023-02-27T11:43:04.862Z,69.51
2023-02-27T11:46:04.509Z,68.13
2023-02-27T11:48:28.891Z,66.97
2023-02-27T11:51:09.600Z,66.05
2023-02-27T11:54:05.380Z,65.63
2023-02-27T11:56:36.425Z,64.83
2023-02-27T11:59:14.726Z,64.55
2023-02-27T12:01:50.472Z,62.00
2023-02-27T12:04:25.265Z,63.41
2023-02-27T12:06:56.675Z,63.52
2023-02-27T12:09:39.430Z,62.93
2023-02-27T12:12:17.342Z,63.81
2023-02-27T12:14:53.434Z,63.00
2023-02-27T12:17:26.380Z,62.87
2023-02-27T12:20:07.698Z,63.12
2023-02-27T12:22:41.484Z,62.95
2023-02-27T12:25:16.550Z,62.12
2023-02-27T12:27:49.830Z,62.86
2023-02-27T12:30:22.152Z,62.11
2023-02-27T12:32:55.704Z,62.41
2023-02-27T12:35:28.907Z,62.98
2023-02-27T12:37:57.578Z,60.90
2023-02-27T12:40:31.109Z,62.15
2023-02-27T12:43:15.636Z,61.75
2023-02-27T12:46:08.682Z,60.89
2023-02-27T12:48:53.027Z,61.49
2023-02-27T12:51:37.830Z,61.10
2023-02-27T12:54:18.673Z,59.76
2023-02-27T12:56:56.634Z,59.03
2023-02-27T12:59:40.971Z,58.20
2023-02-27T13:02:26.903Z,58.05
2023-02-27T13:05:04.738Z,58.16
2023-02-27T13:07:37.802Z,57.61
2023-02-27T13:10:15.046Z,58.52
2023-02-27T13:12:47.987Z,58.32
2023-02-27T13:15:22.949Z,59.28
2023-02-27T13:17:55.517Z,58.72
2023-02-27T13:20:33.329Z,59.78
2023-02-27T13:23:12.465Z,58.90
2023-02-27T13:25:44.582Z,59.12
2023-02-27T13:28:17.128Z,60.24
2023-02-27T13:30:53.697Z,60.00
2023-02-27T13:33:30.347Z,60.95
2023-02-27T13:36:07.200Z,60.79
2023-02-27T13:38:43.049Z,62.54
2023-02-27T13:41:37.063Z,62.80
2023-02-27T13:44:46.212Z,62.53
2023-02-27T13:47:39.600Z,62.22
2023-02-27T13:50:36.983Z,62.28
2023-02-27T13:53:11.317Z,62.02
2023-02-27T13:55:40.308Z,61.11
2023-02-27T13:58:17.680Z,59.37
2023-02-27T14:00:56.310Z,55.93
2023-02-27T14:03:27.487Z,56.69
2023-02-27T14:05:59.273Z,56.35
2023-02-27T14:08:29.336Z,55.89
2023-02-27T14:11:02.648Z,55.58
2023-02-27T14:13:58.828Z,56.89
2023-02-27T14:16:54.422Z,58.52
2023-02-27T14:19:51.221Z,58.14
2023-02-27T14:22:37.697Z,59.22
2023-02-27T14:25:19.326Z,60.60
2023-02-27T14:27:56.875Z,59.56
2023-02-27T14:30:30.195Z,59.44
2023-02-27T14:33:03.598Z,60.77
2023-02-27T14:35:31.608Z,61.93
2023-02-27T14:38:03.507Z,62.04
2023-02-27T14:40:37.794Z,62.53
2023-02-27T14:43:15.894Z,62.61
2023-02-27T14:45:43.448Z,62.97
2023-02-27T14:48:11.536Z,63.31
2023-02-27T14:50:42.000Z,63.66
2023-02-27T14:53:23.902Z,63.35
2023-02-27T14:55:55.809Z,64.59
2023-02-27T14:58:25.582Z,65.36
2023-02-27T15:01:04.279Z,65.62
2023-02-27T15:03:37.018Z,66.56
2023-02-27T15:06:13.400Z,66.83
2023-02-27T15:08:46.062Z,68.17
2023-02-27T15:11:16.227Z,68.60
2023-02-27T15:13:46.191Z,69.01
2023-02-27T15:16:21.937Z,70.02
2023-02-27T15:18:50.942Z,70.35
2023-02-27T15:21:20.724Z,71.15
2023-02-27T15:23:55.820Z,71.13
2023-02-27T15:26:23.637Z,70.74
2023-02-27T15:28:52.670Z,70.86
2023-02-27T15:31:23.478Z,70.33
2023-02-27T15:33:52.118Z,70.43
2023-02-27T15:36:23.555Z,71.39
2023-02-27T15:39:08.157Z,71.37
2023-02-27T15:41:36.955Z,71.74
2023-02-27T15:44:06.319Z,71.85
2023-02-27T15:46:34.287Z,71.04
2023-02-27T15:49:02.095Z,72.50
2023-02-27T15:51:30.019Z,71.58
2023-02-27T15:54:00.370Z,73.14
2023-02-27T15:56:32.453Z,72.93
2023-02-27T15:59:01.648Z,73.23
2023-02-27T16:01:34.824Z,72.90
2023-02-27T16:04:06.012Z,72.71
2023-02-27T16:06:36.799Z,73.30
2023-02-27T16:09:07.555Z,73.13
2023-02-27T16:11:37.193Z,72.79
2023-02-27T16:14:05.852Z,73.73
2023-02-27T16:16:37.342Z,73.21
2023-02-27T16:19:16.692Z,74.05
2023-02-27T16:22:06.582Z,73.32
2023-02-27T16:24:34.758Z,73.16
2023-02-27T16:27:02.813Z,73.10
2023-02-27T16:29:35.606Z,73.78
2023-02-27T16:32:05.586Z,73.07
2023-02-27T16:34:45.262Z,74.14
2023-02-27T16:37:20.406Z,74.09
2023-02-27T16:39:49.644Z,74.06
2023-02-27T16:42:17.210Z,73.81
2023-02-27T16:44:44.706Z,73.57
2023-02-27T16:47:13.817Z,74.31
2023-02-27T16:49:44.239Z,74.44
2023-02-27T16:52:12.149Z,74.34
2023-02-27T16:54:39.758Z,74.69
2023-02-27T16:57:07.887Z,75.22
2023-02-27T16:59:37.283Z,75.32
2023-02-27T17:02:07.292Z,75.99
2023-02-27T17:04:36.336Z,75.32
2023-02-27T17:07:06.481Z,75.62
2023-02-27T17:09:35.022Z,75.59
2023-02-27T17:12:02.614Z,75.83
2023-02-27T17:14:30.117Z,75.55
2023-02-27T17:16:59.241Z,75.58
2023-02-27T17:19:26.939Z,74.96
2023-02-27T17:21:55.789Z,75.89
2023-02-27T17:24:23.642Z,76.33
2023-02-27T17:26:52.523Z,76.05
2023-02-27T17:29:20.732Z,76.78
2023-02-27T17:31:48.442Z,76.58
2023-02-27T17:34:16.838Z,76.66
2023-02-27T17:36:44.712Z,76.85
2023-02-27T17:39:14.750Z,76.99
2023-02-27T17:41:44.264Z,76.52
2023-02-27T17:44:12.628Z,77.19
2023-02-27T17:46:41.000Z,76.82
2023-02-27T17:49:09.540Z,77.06
2023-02-27T17:51:37.028Z,77.07
2023-02-27T17:54:06.270Z,77.52
2023-02-27T17:56:36.916Z,78.29
2023-02-27T17:59:04.750Z,76.81
2023-02-27T18:01:32.442Z,77.07
2023-02-27T18:04:00.039Z,77.39
2023-02-27T18:06:28.598Z,78.83
2023-02-27T18:08:56.368Z,79.39
2023-02-27T18:11:24.274Z,79.79
2023-02-27T18:13:53.150Z,79.64
2023-02-27T18:16:22.128Z,79.64
2023-02-27T18:18:49.966Z,79.39
2023-02-27T18:21:20.924Z,79.43
2023-02-27T18:23:49.578Z,79.41
2023-02-27T18:26:28.905Z,79.58
2023-02-27T18:29:00.950Z,80.51
2023-02-27T18:31:31.626Z,80.28
2023-02-27T18:34:00.045Z,80.36
2023-02-27T18:36:28.291Z,80.99
2023-02-27T18:38:55.959Z,81.05
2023-02-27T18:41:23.505Z,80.82
2023-02-27T18:43:51.230Z,79.91
2023-02-27T18:46:20.536Z,80.14
2023-02-27T18:48:48.375Z,79.95
2023-02-27T18:51:17.544Z,80.16
2023-02-27T18:53:48.558Z,80.20
2023-02-27T18:56:18.147Z,79.77
2023-02-27T18:58:46.186Z,80.30
2023-02-27T19:01:21.720Z,80.36
2023-02-27T19:03:49.856Z,80.14
2023-02-27T19:06:17.739Z,79.47
2023-02-27T19:08:46.087Z,80.23
2023-02-27T19:11:22.173Z,79.35
2023-02-27T19:13:49.671Z,79.78
2023-02-27T19:16:17.385Z,80.60
2023-02-27T19:18:46.292Z,80.49
2023-02-27T19:21:13.866Z,80.78
2023-02-27T19:23:41.453Z,79.47
2023-02-27T19:26:09.014Z,80.05
2023-02-27T19:28:36.575Z,80.50
2023-02-27T19:31:07.672Z,80.29
2023-02-27T19:33:35.288Z,81.02
2023-02-27T19:36:07.544Z,81.32
2023-02-27T19:38:35.166Z,81.44
2023-02-27T19:41:03.106Z,81.27
2023-02-27T19:43:31.267Z,83.19
2023-02-27T19:45:59.103Z,82.58
2023-02-27T19:48:27.183Z,83.25
2023-02-27T19:50:54.695Z,82.82
2023-02-27T19:53:23.546Z,83.38
2023-02-27T19:55:58.848Z,82.65
2023-02-27T19:58:26.348Z,83.44
2023-02-27T20:00:54.002Z,83.81
2023-02-27T20:03:21.826Z,83.24
2023-02-27T20:05:49.631Z,83.39
2023-02-27T20:08:17.660Z,82.73
2023-02-27T20:10:54.388Z,82.64
2023-02-27T20:13:22.433Z,81.98
2023-02-27T20:15:56.721Z,81.43
2023-02-27T20:18:24.395Z,81.10
2023-02-27T20:20:59.893Z,81.51
2023-02-27T20:23:27.529Z,81.99
2023-02-27T20:25:56.639Z,82.44
2023-02-27T20:28:24.442Z,82.76
2023-02-27T20:30:52.029Z,82.19
2023-02-27T20:33:19.609Z,81.43
2023-02-27T20:35:47.156Z,81.42
2023-02-27T20:38:16.397Z,81.78
2023-02-27T20:40:43.982Z,81.81
2023-02-27T20:43:12.822Z,82.19
2023-02-27T20:45:41.662Z,81.38
2023-02-27T20:48:09.358Z,80.63
2023-02-27T20:50:36.866Z,82.21
2023-02-27T20:53:04.481Z,82.51
2023-02-27T20:55:32.057Z,81.32
2023-02-27T20:57:59.651Z,80.58
2023-02-27T21:00:28.578Z,80.04
2023-02-27T21:02:56.240Z,79.49
2023-02-27T21:05:23.786Z,79.20
2023-02-27T21:07:51.557Z,79.56
2023-02-27T21:10:19.462Z,80.51
2023-02-27T21:12:46.990Z,80.45
2023-02-27T21:15:14.644Z,80.27
2023-02-27T21:17:43.580Z,78.10
2023-02-27T21:20:12.291Z,77.65
2023-02-27T21:22:39.841Z,78.11
2023-02-27T21:25:07.909Z,75.95
2023-02-27T21:27:35.508Z,76.74
2023-02-27T21:30:03.229Z,77.37
2023-02-27T21:32:30.888Z,77.83
2023-02-27T21:34:59.773Z,76.64
2023-02-27T21:37:27.410Z,76.85
2023-02-27T21:39:57.066Z,76.91
2023-02-27T21:42:24.646Z,76.84
2023-02-27T21:44:52.228Z,76.21
2023-02-27T21:47:20.716Z,75.07
2023-02-27T21:49:48.257Z,75.18
2023-02-27T21:52:17.117Z,76.89
2023-02-27T21:54:44.964Z,75.27
2023-02-27T21:57:12.617Z,74.00
2023-02-27T21:59:41.609Z,74.64
2023-02-27T22:02:13.325Z,75.22
2023-02-27T22:04:41.029Z,75.04
2023-02-27T22:07:11.138Z,74.14
2023-02-27T22:09:40.356Z,74.09
2023-02-27T22:12:09.005Z,74.91
2023-02-27T22:14:36.569Z,75.32
2023-02-27T22:17:04.234Z,76.35
2023-02-27T22:19:31.788Z,74.68
2023-02-27T22:21:59.358Z,76.32
2023-02-27T22:24:26.927Z,76.63
2023-02-27T22:26:55.842Z,76.08
2023-02-27T22:29:23.613Z,74.86
2023-02-27T22:31:51.387Z,76.57
2023-02-27T22:34:19.407Z,76.70
2023-02-27T22:36:48.490Z,76.67
2023-02-27T22:39:16.025Z,77.45
2023-02-27T22:41:43.891Z,77.70
2023-02-27T22:44:14.690Z,77.47
2023-02-27T22:46:44.158Z,78.85
2023-02-27T22:49:13.930Z,78.07
2023-02-27T22:51:41.854Z,77.76
2023-02-27T22:54:10.503Z,76.64
2023-02-27T22:56:38.471Z,76.40
2023-02-27T22:59:06.648Z,76.41
2023-02-27T23:01:37.399Z,75.87
2023-02-27T23:04:07.125Z,75.00
2023-02-27T23:06:36.786Z,76.80
2023-02-27T23:09:07.487Z,74.79
2023-02-27T23:11:35.334Z,74.20
2023-02-27T23:14:02.988Z,74.65
2023-02-27T23:16:30.604Z,74.33
2023-02-27T23:19:00.697Z,74.79
2023-02-27T23:21:34.141Z,75.13
2023-02-27T23:24:04.204Z,74.35
2023-02-27T23:26:31.739Z,74.14
2023-02-27T23:28:59.302Z,73.97
2023-02-27T23:31:27.644Z,73.16
2023-02-27T23:33:55.439Z,73.35
2023-02-27T23:36:24.421Z,73.92
2023-02-27T23:38:51.983Z,74.63
2023-02-27T23:41:20.822Z,75.71
2023-02-27T23:44:10.082Z,74.97
2023-02-27T23:46:38.061Z,75.29
2023-02-27T23:49:05.681Z,74.49
2023-02-27T23:51:34.973Z,75.40
2023-02-27T23:54:03.423Z,74.30
2023-02-27T23:56:31.808Z,73.93
2023-02-27T23:59:01.985Z,75.51
